sensor_id;sensor_type;location;lat;lon;timestamp;P1;durP1;ratioP1;P2;durP2;ratioP2
2838;SDS011;1427;48.510;9.060;2023-07-22T00:01:51;46.60;;;1.90;;
2838;SDS011;1427;48.510;9.060;2023-07-22T00:04:19;48.53;;;2.43;;
2838;SDS011;1427;48.510;9.060;2023-07-22T00:06:49;47.37;;;2.00;;
2838;SDS011;1427;48.510;9.060;2023-07-22T00:09:18;47.17;;;2.17;;
2838;SDS011;1427;48.510;9.060;2023-07-22T00:11:46;47.23;;;1.97;;
2838;SDS011;1427;48.510;9.060;2023-07-22T00:14:17;46.57;;;2.03;;
2838;SDS011;1427;48.510;9.060;2023-07-22T00:16:45;48.20;;;2.30;;
2838;SDS011;1427;48.510;9.060;2023-07-22T00:19:14;47.70;;;2.20;;
2838;SDS011;1427;48.510;9.060;2023-07-22T00:21:44;46.30;;;1.60;;
2838;SDS011;1427;48.510;9.060;2023-07-22T00:24:13;47.23;;;2.17;;
2838;SDS011;1427;48.510;9.060;2023-07-22T00:26:41;48.40;;;3.30;;
2838;SDS011;1427;48.510;9.060;2023-07-22T00:29:09;48.00;;;2.13;;
2838;SDS011;1427;48.510;9.060;2023-07-22T00:31:38;46.77;;;1.90;;
2838;SDS011;1427;48.510;9.060;2023-07-22T00:34:07;46.93;;;2.10;;
2838;SDS011;1427;48.510;9.060;2023-07-22T00:36:36;46.37;;;1.90;;
2838;SDS011;1427;48.510;9.060;2023-07-22T00:39:05;46.63;;;1.80;;
2838;SDS011;1427;48.510;9.060;2023-07-22T00:41:34;46.87;;;1.90;;
2838;SDS011;1427;48.510;9.060;2023-07-22T00:44:02;46.50;;;1.90;;
2838;SDS011;1427;48.510;9.060;2023-07-22T00:46:31;49.57;;;2.67;;
2838;SDS011;1427;48.510;9.060;2023-07-22T00:48:59;46.70;;;1.80;;
2838;SDS011;1427;48.510;9.060;2023-07-22T00:51:27;45.97;;;1.90;;
2838;SDS011;1427;48.510;9.060;2023-07-22T00:53:59;46.80;;;2.00;;
2838;SDS011;1427;48.510;9.060;2023-07-22T00:56:27;46.60;;;1.97;;
2838;SDS011;1427;48.510;9.060;2023-07-22T00:58:57;46.00;;;1.27;;
2838;SDS011;1427;48.510;9.060;2023-07-22T01:01:26;47.20;;;2.20;;
2838;SDS011;1427;48.510;9.060;2023-07-22T01:03:54;46.97;;;1.70;;
2838;SDS011;1427;48.510;9.060;2023-07-22T01:06:23;48.27;;;2.00;;
2838;SDS011;1427;48.510;9.060;2023-07-22T01:08:52;48.47;;;1.93;;
2838;SDS011;1427;48.510;9.060;2023-07-22T01:11:20;46.73;;;2.00;;
2838;SDS011;1427;48.510;9.060;2023-07-22T01:13:48;46.43;;;1.67;;
2838;SDS011;1427;48.510;9.060;2023-07-22T01:16:18;46.20;;;1.90;;
2838;SDS011;1427;48.510;9.060;2023-07-22T01:18:47;47.40;;;2.23;;
2838;SDS011;1427;48.510;9.060;2023-07-22T01:21:15;47.00;;;1.93;;
2838;SDS011;1427;48.510;9.060;2023-07-22T01:23:45;47.47;;;2.27;;
2838;SDS011;1427;48.510;9.060;2023-07-22T01:26:14;46.67;;;1.90;;
2838;SDS011;1427;48.510;9.060;2023-07-22T01:28:42;47.47;;;2.10;;
2838;SDS011;1427;48.510;9.060;2023-07-22T01:31:11;46.57;;;2.07;;
2838;SDS011;1427;48.510;9.060;2023-07-22T01:33:39;46.80;;;1.70;;
2838;SDS011;1427;48.510;9.060;2023-07-22T01:36:07;46.87;;;2.00;;
2838;SDS011;1427;48.510;9.060;2023-07-22T01:38:35;46.30;;;1.80;;
2838;SDS011;1427;48.510;9.060;2023-07-22T01:41:05;46.50;;;1.90;;
2838;SDS011;1427;48.510;9.060;2023-07-22T01:43:33;46.80;;;2.00;;
2838;SDS011;1427;48.510;9.060;2023-07-22T01:46:01;47.10;;;2.00;;
2838;SDS011;1427;48.510;9.060;2023-07-22T01:48:29;49.50;;;2.43;;
2838;SDS011;1427;48.510;9.060;2023-07-22T01:50:58;47.00;;;2.00;;
2838;SDS011;1427;48.510;9.060;2023-07-22T01:53:26;45.80;;;1.50;;
2838;SDS011;1427;48.510;9.060;2023-07-22T01:55:54;47.00;;;1.80;;
2838;SDS011;1427;48.510;9.060;2023-07-22T01:58:24;47.40;;;2.23;;
2838;SDS011;1427;48.510;9.060;2023-07-22T02:00:52;47.50;;;2.33;;
2838;SDS011;1427;48.510;9.060;2023-07-22T02:03:20;46.93;;;1.87;;
2838;SDS011;1427;48.510;9.060;2023-07-22T02:05:49;46.90;;;1.70;;
2838;SDS011;1427;48.510;9.060;2023-07-22T02:08:17;46.90;;;1.97;;
2838;SDS011;1427;48.510;9.060;2023-07-22T02:10:45;46.40;;;2.00;;
2838;SDS011;1427;48.510;9.060;2023-07-22T02:13:13;46.40;;;1.87;;
2838;SDS011;1427;48.510;9.060;2023-07-22T02:15:43;46.37;;;1.87;;
2838;SDS011;1427;48.510;9.060;2023-07-22T02:18:12;48.33;;;2.03;;
2838;SDS011;1427;48.510;9.060;2023-07-22T02:20:42;50.03;;;2.20;;
2838;SDS011;1427;48.510;9.060;2023-07-22T02:23:10;46.10;;;1.80;;
2838;SDS011;1427;48.510;9.060;2023-07-22T02:25:38;47.40;;;2.27;;
2838;SDS011;1427;48.510;9.060;2023-07-22T02:28:06;47.23;;;2.73;;
2838;SDS011;1427;48.510;9.060;2023-07-22T02:30:34;46.60;;;2.00;;
2838;SDS011;1427;48.510;9.060;2023-07-22T02:33:05;47.60;;;2.00;;
2838;SDS011;1427;48.510;9.060;2023-07-22T02:35:33;47.13;;;1.87;;
2838;SDS011;1427;48.510;9.060;2023-07-22T02:38:01;46.60;;;1.73;;
2838;SDS011;1427;48.510;9.060;2023-07-22T02:40:29;46.53;;;2.07;;
2838;SDS011;1427;48.510;9.060;2023-07-22T02:43:01;47.50;;;2.10;;
2838;SDS011;1427;48.510;9.060;2023-07-22T02:45:29;46.10;;;1.63;;
2838;SDS011;1427;48.510;9.060;2023-07-22T02:47:57;46.53;;;1.83;;
2838;SDS011;1427;48.510;9.060;2023-07-22T02:50:27;45.97;;;1.63;;
2838;SDS011;1427;48.510;9.060;2023-07-22T02:52:55;46.93;;;1.77;;
2838;SDS011;1427;48.510;9.060;2023-07-22T02:55:23;47.67;;;1.80;;
2838;SDS011;1427;48.510;9.060;2023-07-22T02:57:52;56.80;;;2.30;;
2838;SDS011;1427;48.510;9.060;2023-07-22T03:00:20;46.50;;;2.07;;
2838;SDS011;1427;48.510;9.060;2023-07-22T03:02:50;47.10;;;2.10;;
2838;SDS011;1427;48.510;9.060;2023-07-22T03:05:19;47.87;;;2.03;;
2838;SDS011;1427;48.510;9.060;2023-07-22T03:07:49;47.00;;;1.77;;
2838;SDS011;1427;48.510;9.060;2023-07-22T03:10:19;46.27;;;1.60;;
2838;SDS011;1427;48.510;9.060;2023-07-22T03:12:47;48.60;;;2.20;;
2838;SDS011;1427;48.510;9.060;2023-07-22T03:15:16;48.23;;;2.30;;
2838;SDS011;1427;48.510;9.060;2023-07-22T03:17:45;46.47;;;1.90;;
2838;SDS011;1427;48.510;9.060;2023-07-22T03:20:13;46.83;;;2.00;;
2838;SDS011;1427;48.510;9.060;2023-07-22T03:22:43;48.47;;;2.23;;
2838;SDS011;1427;48.510;9.060;2023-07-22T03:25:13;47.10;;;2.10;;
2838;SDS011;1427;48.510;9.060;2023-07-22T03:27:44;47.60;;;2.43;;
2838;SDS011;1427;48.510;9.060;2023-07-22T03:30:12;47.07;;;1.87;;
2838;SDS011;1427;48.510;9.060;2023-07-22T03:32:42;46.83;;;2.00;;
2838;SDS011;1427;48.510;9.060;2023-07-22T03:35:11;46.97;;;1.90;;
2838;SDS011;1427;48.510;9.060;2023-07-22T03:37:40;46.60;;;2.07;;
2838;SDS011;1427;48.510;9.060;2023-07-22T03:40:08;48.07;;;2.00;;
2838;SDS011;1427;48.510;9.060;2023-07-22T03:42:42;46.37;;;1.70;;
2838;SDS011;1427;48.510;9.060;2023-07-22T03:45:10;48.47;;;2.40;;
2838;SDS011;1427;48.510;9.060;2023-07-22T03:47:38;46.83;;;2.37;;
2838;SDS011;1427;48.510;9.060;2023-07-22T03:50:07;46.77;;;1.50;;
2838;SDS011;1427;48.510;9.060;2023-07-22T03:52:36;46.27;;;1.67;;
2838;SDS011;1427;48.510;9.060;2023-07-22T03:55:04;46.87;;;1.83;;
2838;SDS011;1427;48.510;9.060;2023-07-22T03:57:33;48.00;;;4.60;;
2838;SDS011;1427;48.510;9.060;2023-07-22T04:00:04;50.10;;;6.50;;
2838;SDS011;1427;48.510;9.060;2023-07-22T04:02:35;48.50;;;4.77;;
2838;SDS011;1427;48.510;9.060;2023-07-22T04:05:04;47.80;;;3.90;;
2838;SDS011;1427;48.510;9.060;2023-07-22T04:07:33;48.53;;;4.53;;
2838;SDS011;1427;48.510;9.060;2023-07-22T04:10:01;47.87;;;3.90;;
2838;SDS011;1427;48.510;9.060;2023-07-22T04:12:30;48.00;;;4.50;;
2838;SDS011;1427;48.510;9.060;2023-07-22T04:14:58;48.87;;;4.73;;
2838;SDS011;1427;48.510;9.060;2023-07-22T04:17:28;48.70;;;4.60;;
2838;SDS011;1427;48.510;9.060;2023-07-22T04:19:56;48.77;;;5.00;;
2838;SDS011;1427;48.510;9.060;2023-07-22T04:22:24;49.43;;;4.97;;
2838;SDS011;1427;48.510;9.060;2023-07-22T04:24:52;48.93;;;4.90;;
2838;SDS011;1427;48.510;9.060;2023-07-22T04:27:20;49.50;;;6.03;;
2838;SDS011;1427;48.510;9.060;2023-07-22T04:29:51;47.97;;;4.37;;
2838;SDS011;1427;48.510;9.060;2023-07-22T04:32:20;49.33;;;5.40;;
2838;SDS011;1427;48.510;9.060;2023-07-22T04:34:49;49.47;;;5.33;;
2838;SDS011;1427;48.510;9.060;2023-07-22T04:37:17;49.77;;;4.90;;
2838;SDS011;1427;48.510;9.060;2023-07-22T04:39:48;48.97;;;4.37;;
2838;SDS011;1427;48.510;9.060;2023-07-22T04:42:17;51.03;;;5.10;;
2838;SDS011;1427;48.510;9.060;2023-07-22T04:44:45;50.00;;;4.63;;
2838;SDS011;1427;48.510;9.060;2023-07-22T04:47:13;48.60;;;4.90;;
2838;SDS011;1427;48.510;9.060;2023-07-22T04:49:42;48.87;;;4.67;;
2838;SDS011;1427;48.510;9.060;2023-07-22T04:52:12;49.10;;;4.40;;
2838;SDS011;1427;48.510;9.060;2023-07-22T04:54:41;48.40;;;4.50;;
2838;SDS011;1427;48.510;9.060;2023-07-22T04:57:09;48.30;;;4.43;;
2838;SDS011;1427;48.510;9.060;2023-07-22T04:59:37;49.30;;;4.40;;
2838;SDS011;1427;48.510;9.060;2023-07-22T05:02:05;50.97;;;5.07;;
2838;SDS011;1427;48.510;9.060;2023-07-22T05:04:33;48.50;;;4.43;;
2838;SDS011;1427;48.510;9.060;2023-07-22T05:07:02;49.60;;;5.07;;
2838;SDS011;1427;48.510;9.060;2023-07-22T05:09:31;48.63;;;4.67;;
2838;SDS011;1427;48.510;9.060;2023-07-22T05:12:00;49.27;;;5.10;;
2838;SDS011;1427;48.510;9.060;2023-07-22T05:14:28;48.10;;;3.93;;
2838;SDS011;1427;48.510;9.060;2023-07-22T05:16:56;48.70;;;4.40;;
2838;SDS011;1427;48.510;9.060;2023-07-22T05:19:24;48.47;;;4.40;;
2838;SDS011;1427;48.510;9.060;2023-07-22T05:21:53;50.27;;;5.47;;
2838;SDS011;1427;48.510;9.060;2023-07-22T05:24:21;49.30;;;4.60;;
2838;SDS011;1427;48.510;9.060;2023-07-22T05:26:53;48.80;;;4.73;;
2838;SDS011;1427;48.510;9.060;2023-07-22T05:29:35;48.90;;;5.67;;
2838;SDS011;1427;48.510;9.060;2023-07-22T05:32:03;50.53;;;4.80;;
2838;SDS011;1427;48.510;9.060;2023-07-22T05:34:42;48.90;;;4.87;;
2838;SDS011;1427;48.510;9.060;2023-07-22T05:37:10;49.60;;;5.27;;
2838;SDS011;1427;48.510;9.060;2023-07-22T05:39:38;48.90;;;4.60;;
2838;SDS011;1427;48.510;9.060;2023-07-22T05:42:08;56.63;;;7.90;;
2838;SDS011;1427;48.510;9.060;2023-07-22T05:44:36;49.90;;;5.27;;
2838;SDS011;1427;48.510;9.060;2023-07-22T05:47:04;52.37;;;6.60;;
2838;SDS011;1427;48.510;9.060;2023-07-22T05:49:32;49.50;;;5.70;;
2838;SDS011;1427;48.510;9.060;2023-07-22T05:52:00;52.37;;;5.47;;
2838;SDS011;1427;48.510;9.060;2023-07-22T05:54:29;48.97;;;4.43;;
2838;SDS011;1427;48.510;9.060;2023-07-22T05:56:57;51.60;;;6.20;;
2838;SDS011;1427;48.510;9.060;2023-07-22T05:59:26;53.30;;;5.80;;
2838;SDS011;1427;48.510;9.060;2023-07-22T06:01:54;52.27;;;6.07;;
2838;SDS011;1427;48.510;9.060;2023-07-22T06:04:23;48.80;;;5.37;;
2838;SDS011;1427;48.510;9.060;2023-07-22T06:06:51;48.60;;;4.73;;
2838;SDS011;1427;48.510;9.060;2023-07-22T06:09:19;54.67;;;5.67;;
2838;SDS011;1427;48.510;9.060;2023-07-22T06:11:47;51.00;;;6.73;;
2838;SDS011;1427;48.510;9.060;2023-07-22T06:14:18;50.50;;;5.33;;
2838;SDS011;1427;48.510;9.060;2023-07-22T06:16:47;58.77;;;9.27;;
2838;SDS011;1427;48.510;9.060;2023-07-22T06:19:15;53.80;;;7.17;;
2838;SDS011;1427;48.510;9.060;2023-07-22T06:21:44;55.90;;;5.70;;
2838;SDS011;1427;48.510;9.060;2023-07-22T06:24:12;53.83;;;7.30;;
2838;SDS011;1427;48.510;9.060;2023-07-22T06:26:40;50.30;;;5.43;;
2838;SDS011;1427;48.510;9.060;2023-07-22T06:29:08;49.00;;;4.53;;
2838;SDS011;1427;48.510;9.060;2023-07-22T06:31:36;50.90;;;5.60;;
2838;SDS011;1427;48.510;9.060;2023-07-22T06:34:06;49.50;;;4.80;;
2838;SDS011;1427;48.510;9.060;2023-07-22T06:36:34;49.67;;;5.43;;
2838;SDS011;1427;48.510;9.060;2023-07-22T06:39:02;54.17;;;6.23;;
2838;SDS011;1427;48.510;9.060;2023-07-22T06:41:30;50.30;;;5.70;;
2838;SDS011;1427;48.510;9.060;2023-07-22T06:43:59;48.83;;;4.83;;
2838;SDS011;1427;48.510;9.060;2023-07-22T06:46:26;49.60;;;5.27;;
2838;SDS011;1427;48.510;9.060;2023-07-22T06:48:56;49.60;;;4.57;;
2838;SDS011;1427;48.510;9.060;2023-07-22T06:51:25;52.53;;;6.63;;
2838;SDS011;1427;48.510;9.060;2023-07-22T06:53:54;49.43;;;4.77;;
2838;SDS011;1427;48.510;9.060;2023-07-22T06:56:22;49.20;;;4.90;;
2838;SDS011;1427;48.510;9.060;2023-07-22T06:58:50;48.80;;;4.63;;
2838;SDS011;1427;48.510;9.060;2023-07-22T07:01:18;50.33;;;4.57;;
2838;SDS011;1427;48.510;9.060;2023-07-22T07:03:46;49.23;;;4.73;;
2838;SDS011;1427;48.510;9.060;2023-07-22T07:06:14;49.17;;;5.00;;
2838;SDS011;1427;48.510;9.060;2023-07-22T07:08:44;62.10;;;8.50;;
2838;SDS011;1427;48.510;9.060;2023-07-22T07:11:13;55.93;;;7.10;;
2838;SDS011;1427;48.510;9.060;2023-07-22T07:13:41;49.60;;;6.30;;
2838;SDS011;1427;48.510;9.060;2023-07-22T07:16:22;52.27;;;6.00;;
2838;SDS011;1427;48.510;9.060;2023-07-22T07:18:51;51.70;;;5.37;;
2838;SDS011;1427;48.510;9.060;2023-07-22T07:21:21;48.37;;;4.30;;
2838;SDS011;1427;48.510;9.060;2023-07-22T07:23:51;50.93;;;6.10;;
2838;SDS011;1427;48.510;9.060;2023-07-22T07:26:20;50.70;;;4.93;;
2838;SDS011;1427;48.510;9.060;2023-07-22T07:28:49;50.70;;;6.53;;
2838;SDS011;1427;48.510;9.060;2023-07-22T07:31:18;49.40;;;6.00;;
2838;SDS011;1427;48.510;9.060;2023-07-22T07:33:46;48.30;;;4.53;;
2838;SDS011;1427;48.510;9.060;2023-07-22T07:36:14;49.30;;;6.03;;
2838;SDS011;1427;48.510;9.060;2023-07-22T07:38:42;50.00;;;5.10;;
2838;SDS011;1427;48.510;9.060;2023-07-22T07:41:12;48.17;;;4.50;;
2838;SDS011;1427;48.510;9.060;2023-07-22T07:43:41;51.17;;;5.20;;
2838;SDS011;1427;48.510;9.060;2023-07-22T07:46:12;49.50;;;4.77;;
2838;SDS011;1427;48.510;9.060;2023-07-22T07:48:44;48.23;;;4.53;;
2838;SDS011;1427;48.510;9.060;2023-07-22T07:51:13;48.63;;;4.57;;
2838;SDS011;1427;48.510;9.060;2023-07-22T07:53:42;48.40;;;4.73;;
2838;SDS011;1427;48.510;9.060;2023-07-22T07:56:12;51.10;;;4.90;;
2838;SDS011;1427;48.510;9.060;2023-07-22T07:58:40;50.60;;;5.00;;
2838;SDS011;1427;48.510;9.060;2023-07-22T08:01:09;51.03;;;4.70;;
2838;SDS011;1427;48.510;9.060;2023-07-22T08:03:38;48.40;;;4.80;;
2838;SDS011;1427;48.510;9.060;2023-07-22T08:06:08;49.03;;;4.47;;
2838;SDS011;1427;48.510;9.060;2023-07-22T08:08:37;48.70;;;5.10;;
2838;SDS011;1427;48.510;9.060;2023-07-22T08:11:06;49.80;;;5.67;;
2838;SDS011;1427;48.510;9.060;2023-07-22T08:13:37;49.90;;;5.57;;
2838;SDS011;1427;48.510;9.060;2023-07-22T08:16:19;48.80;;;5.00;;
2838;SDS011;1427;48.510;9.060;2023-07-22T08:18:48;49.07;;;5.70;;
2838;SDS011;1427;48.510;9.060;2023-07-22T08:21:16;51.60;;;5.47;;
2838;SDS011;1427;48.510;9.060;2023-07-22T08:23:44;49.47;;;5.73;;
2838;SDS011;1427;48.510;9.060;2023-07-22T08:26:14;48.40;;;4.60;;
2838;SDS011;1427;48.510;9.060;2023-07-22T08:28:45;48.87;;;4.23;;
2838;SDS011;1427;48.510;9.060;2023-07-22T08:31:14;48.67;;;5.53;;
2838;SDS011;1427;48.510;9.060;2023-07-22T08:33:42;48.47;;;4.97;;
2838;SDS011;1427;48.510;9.060;2023-07-22T08:36:10;49.03;;;4.50;;
2838;SDS011;1427;48.510;9.060;2023-07-22T08:38:39;52.73;;;4.10;;
2838;SDS011;1427;48.510;9.060;2023-07-22T08:41:07;49.83;;;4.83;;
2838;SDS011;1427;48.510;9.060;2023-07-22T08:43:41;48.60;;;4.90;;
2838;SDS011;1427;48.510;9.060;2023-07-22T08:46:13;47.63;;;4.23;;
2838;SDS011;1427;48.510;9.060;2023-07-22T08:48:44;47.50;;;4.03;;
2838;SDS011;1427;48.510;9.060;2023-07-22T08:51:17;48.10;;;4.60;;
2838;SDS011;1427;48.510;9.060;2023-07-22T08:53:46;51.10;;;6.20;;
2838;SDS011;1427;48.510;9.060;2023-07-22T08:56:34;48.10;;;4.30;;
2838;SDS011;1427;48.510;9.060;2023-07-22T08:59:03;50.40;;;4.97;;
2838;SDS011;1427;48.510;9.060;2023-07-22T09:01:35;47.67;;;4.43;;
2838;SDS011;1427;48.510;9.060;2023-07-22T09:04:06;47.80;;;4.53;;
2838;SDS011;1427;48.510;9.060;2023-07-22T09:06:35;47.90;;;4.27;;
2838;SDS011;1427;48.510;9.060;2023-07-22T09:09:04;48.60;;;5.47;;
2838;SDS011;1427;48.510;9.060;2023-07-22T09:11:34;48.00;;;4.73;;
2838;SDS011;1427;48.510;9.060;2023-07-22T09:14:03;48.57;;;4.20;;
2838;SDS011;1427;48.510;9.060;2023-07-22T09:16:32;48.50;;;5.27;;
2838;SDS011;1427;48.510;9.060;2023-07-22T09:19:04;50.20;;;5.20;;
2838;SDS011;1427;48.510;9.060;2023-07-22T09:21:32;49.93;;;5.47;;
2838;SDS011;1427;48.510;9.060;2023-07-22T09:24:05;48.60;;;5.00;;
2838;SDS011;1427;48.510;9.060;2023-07-22T09:26:48;47.27;;;3.97;;
2838;SDS011;1427;48.510;9.060;2023-07-22T09:29:17;47.50;;;3.93;;
2838;SDS011;1427;48.510;9.060;2023-07-22T09:31:49;48.90;;;5.00;;
2838;SDS011;1427;48.510;9.060;2023-07-22T09:34:21;47.90;;;4.27;;
2838;SDS011;1427;48.510;9.060;2023-07-22T09:36:50;48.50;;;4.97;;
2838;SDS011;1427;48.510;9.060;2023-07-22T09:39:19;50.13;;;4.40;;
2838;SDS011;1427;48.510;9.060;2023-07-22T09:41:47;47.80;;;4.80;;
2838;SDS011;1427;48.510;9.060;2023-07-22T09:44:16;50.27;;;5.27;;
2838;SDS011;1427;48.510;9.060;2023-07-22T09:46:46;47.40;;;4.20;;
2838;SDS011;1427;48.510;9.060;2023-07-22T09:49:16;47.93;;;4.90;;
2838;SDS011;1427;48.510;9.060;2023-07-22T09:51:47;48.10;;;4.30;;
2838;SDS011;1427;48.510;9.060;2023-07-22T09:54:28;48.30;;;4.67;;
2838;SDS011;1427;48.510;9.060;2023-07-22T09:56:57;47.77;;;4.43;;
2838;SDS011;1427;48.510;9.060;2023-07-22T09:59:26;48.00;;;4.03;;
2838;SDS011;1427;48.510;9.060;2023-07-22T10:01:57;47.40;;;3.87;;
2838;SDS011;1427;48.510;9.060;2023-07-22T10:04:31;48.70;;;4.83;;
2838;SDS011;1427;48.510;9.060;2023-07-22T10:07:04;47.87;;;4.43;;
2838;SDS011;1427;48.510;9.060;2023-07-22T10:09:35;49.37;;;5.57;;
2838;SDS011;1427;48.510;9.060;2023-07-22T10:12:04;48.80;;;4.73;;
2838;SDS011;1427;48.510;9.060;2023-07-22T10:14:33;48.20;;;4.90;;
2838;SDS011;1427;48.510;9.060;2023-07-22T10:17:04;47.57;;;4.33;;
2838;SDS011;1427;48.510;9.060;2023-07-22T10:19:33;48.57;;;4.27;;
2838;SDS011;1427;48.510;9.060;2023-07-22T10:22:03;49.63;;;5.43;;
2838;SDS011;1427;48.510;9.060;2023-07-22T10:24:34;47.60;;;4.30;;
2838;SDS011;1427;48.510;9.060;2023-07-22T10:27:03;51.30;;;4.70;;
2838;SDS011;1427;48.510;9.060;2023-07-22T10:29:33;48.63;;;5.03;;
2838;SDS011;1427;48.510;9.060;2023-07-22T10:32:02;49.13;;;5.00;;
2838;SDS011;1427;48.510;9.060;2023-07-22T10:34:31;49.03;;;5.13;;
2838;SDS011;1427;48.510;9.060;2023-07-22T10:36:59;48.07;;;4.97;;
2838;SDS011;1427;48.510;9.060;2023-07-22T10:39:28;48.13;;;4.27;;
2838;SDS011;1427;48.510;9.060;2023-07-22T10:42:00;49.20;;;5.13;;
2838;SDS011;1427;48.510;9.060;2023-07-22T10:44:31;48.27;;;5.20;;
2838;SDS011;1427;48.510;9.060;2023-07-22T10:47:01;48.60;;;5.27;;
2838;SDS011;1427;48.510;9.060;2023-07-22T10:49:43;51.70;;;4.37;;
2838;SDS011;1427;48.510;9.060;2023-07-22T10:52:12;51.07;;;4.63;;
2838;SDS011;1427;48.510;9.060;2023-07-22T10:54:47;48.70;;;5.37;;
2838;SDS011;1427;48.510;9.060;2023-07-22T10:57:34;48.50;;;4.97;;
2838;SDS011;1427;48.510;9.060;2023-07-22T11:00:18;48.33;;;4.60;;
2838;SDS011;1427;48.510;9.060;2023-07-22T11:05:47;47.50;;;4.50;;
2838;SDS011;1427;48.510;9.060;2023-07-22T11:08:17;48.87;;;5.13;;
2838;SDS011;1427;48.510;9.060;2023-07-22T11:11:06;48.60;;;5.53;;
2838;SDS011;1427;48.510;9.060;2023-07-22T11:13:37;48.30;;;4.77;;
2838;SDS011;1427;48.510;9.060;2023-07-22T11:16:09;49.00;;;5.43;;
2838;SDS011;1427;48.510;9.060;2023-07-22T11:18:38;48.87;;;4.67;;
2838;SDS011;1427;48.510;9.060;2023-07-22T11:21:09;48.60;;;4.70;;
2838;SDS011;1427;48.510;9.060;2023-07-22T11:23:37;48.07;;;4.70;;
2838;SDS011;1427;48.510;9.060;2023-07-22T11:26:07;48.80;;;5.07;;
2838;SDS011;1427;48.510;9.060;2023-07-22T11:28:35;49.17;;;5.73;;
2838;SDS011;1427;48.510;9.060;2023-07-22T11:31:03;48.70;;;5.17;;
2838;SDS011;1427;48.510;9.060;2023-07-22T11:33:37;48.23;;;5.23;;
2838;SDS011;1427;48.510;9.060;2023-07-22T11:36:06;48.73;;;5.07;;
2838;SDS011;1427;48.510;9.060;2023-07-22T11:38:34;50.77;;;5.93;;
2838;SDS011;1427;48.510;9.060;2023-07-22T11:41:02;49.20;;;5.77;;
2838;SDS011;1427;48.510;9.060;2023-07-22T11:43:31;48.20;;;4.53;;
2838;SDS011;1427;48.510;9.060;2023-07-22T11:45:59;47.80;;;4.37;;
2838;SDS011;1427;48.510;9.060;2023-07-22T11:48:28;48.40;;;5.53;;
2838;SDS011;1427;48.510;9.060;2023-07-22T11:50:58;47.60;;;4.23;;
2838;SDS011;1427;48.510;9.060;2023-07-22T11:53:26;48.20;;;4.50;;
2838;SDS011;1427;48.510;9.060;2023-07-22T11:55:57;49.57;;;5.43;;
2838;SDS011;1427;48.510;9.060;2023-07-22T11:58:27;48.30;;;4.87;;
2838;SDS011;1427;48.510;9.060;2023-07-22T12:01:05;47.83;;;5.10;;
2838;SDS011;1427;48.510;9.060;2023-07-22T12:03:34;49.00;;;5.50;;
2838;SDS011;1427;48.510;9.060;2023-07-22T12:06:03;47.80;;;4.40;;
2838;SDS011;1427;48.510;9.060;2023-07-22T12:08:32;49.27;;;5.17;;
2838;SDS011;1427;48.510;9.060;2023-07-22T12:11:00;47.67;;;4.50;;
2838;SDS011;1427;48.510;9.060;2023-07-22T12:13:28;48.27;;;4.97;;
2838;SDS011;1427;48.510;9.060;2023-07-22T12:16:00;49.10;;;5.50;;
2838;SDS011;1427;48.510;9.060;2023-07-22T12:18:41;48.43;;;5.00;;
2838;SDS011;1427;48.510;9.060;2023-07-22T12:21:10;48.20;;;4.90;;
2838;SDS011;1427;48.510;9.060;2023-07-22T12:23:38;48.07;;;4.80;;
2838;SDS011;1427;48.510;9.060;2023-07-22T12:26:07;48.77;;;4.83;;
2838;SDS011;1427;48.510;9.060;2023-07-22T12:28:36;49.27;;;6.30;;
2838;SDS011;1427;48.510;9.060;2023-07-22T12:31:04;48.37;;;5.47;;
2838;SDS011;1427;48.510;9.060;2023-07-22T12:33:32;49.67;;;5.40;;
2838;SDS011;1427;48.510;9.060;2023-07-22T12:36:02;49.00;;;4.77;;
2838;SDS011;1427;48.510;9.060;2023-07-22T12:38:31;48.90;;;4.50;;
2838;SDS011;1427;48.510;9.060;2023-07-22T12:40:59;48.50;;;5.70;;
2838;SDS011;1427;48.510;9.060;2023-07-22T12:43:28;48.00;;;4.50;;
2838;SDS011;1427;48.510;9.060;2023-07-22T12:45:56;48.17;;;4.23;;
2838;SDS011;1427;48.510;9.060;2023-07-22T12:48:25;49.00;;;5.13;;
2838;SDS011;1427;48.510;9.060;2023-07-22T12:50:53;50.03;;;4.70;;
2838;SDS011;1427;48.510;9.060;2023-07-22T12:53:23;52.73;;;4.90;;
2838;SDS011;1427;48.510;9.060;2023-07-22T12:55:51;50.27;;;6.23;;
2838;SDS011;1427;48.510;9.060;2023-07-22T12:58:19;48.17;;;5.10;;
2838;SDS011;1427;48.510;9.060;2023-07-22T13:00:48;48.90;;;5.20;;
2838;SDS011;1427;48.510;9.060;2023-07-22T13:03:16;47.90;;;4.70;;
2838;SDS011;1427;48.510;9.060;2023-07-22T13:05:44;48.13;;;4.93;;
2838;SDS011;1427;48.510;9.060;2023-07-22T13:08:15;49.40;;;5.87;;
2838;SDS011;1427;48.510;9.060;2023-07-22T13:10:44;48.67;;;4.67;;
2838;SDS011;1427;48.510;9.060;2023-07-22T13:13:13;48.83;;;5.50;;
2838;SDS011;1427;48.510;9.060;2023-07-22T13:15:41;47.50;;;4.37;;
2838;SDS011;1427;48.510;9.060;2023-07-22T13:18:09;49.13;;;4.97;;
2838;SDS011;1427;48.510;9.060;2023-07-22T13:20:40;49.50;;;4.03;;
2838;SDS011;1427;48.510;9.060;2023-07-22T13:23:08;49.27;;;5.23;;
2838;SDS011;1427;48.510;9.060;2023-07-22T13:25:36;48.63;;;5.03;;
2838;SDS011;1427;48.510;9.060;2023-07-22T13:28:05;49.07;;;4.67;;
2838;SDS011;1427;48.510;9.060;2023-07-22T13:30:33;50.63;;;5.10;;
2838;SDS011;1427;48.510;9.060;2023-07-22T13:33:01;49.43;;;5.57;;
2838;SDS011;1427;48.510;9.060;2023-07-22T13:35:30;52.50;;;4.50;;
2838;SDS011;1427;48.510;9.060;2023-07-22T13:37:58;49.30;;;4.90;;
2838;SDS011;1427;48.510;9.060;2023-07-22T13:40:26;50.60;;;4.77;;
2838;SDS011;1427;48.510;9.060;2023-07-22T13:42:54;50.90;;;6.07;;
2838;SDS011;1427;48.510;9.060;2023-07-22T13:45:25;49.60;;;4.80;;
2838;SDS011;1427;48.510;9.060;2023-07-22T13:47:53;49.80;;;4.70;;
2838;SDS011;1427;48.510;9.060;2023-07-22T13:50:21;54.43;;;4.63;;
2838;SDS011;1427;48.510;9.060;2023-07-22T13:52:50;48.07;;;4.60;;
2838;SDS011;1427;48.510;9.060;2023-07-22T13:55:18;49.57;;;5.13;;
2838;SDS011;1427;48.510;9.060;2023-07-22T13:57:46;50.27;;;4.90;;
2838;SDS011;1427;48.510;9.060;2023-07-22T14:00:14;48.83;;;5.10;;
2838;SDS011;1427;48.510;9.060;2023-07-22T14:02:44;48.20;;;4.87;;
2838;SDS011;1427;48.510;9.060;2023-07-22T14:05:12;52.73;;;5.93;;
2838;SDS011;1427;48.510;9.060;2023-07-22T14:07:40;50.90;;;4.87;;
2838;SDS011;1427;48.510;9.060;2023-07-22T14:10:09;49.67;;;4.80;;
2838;SDS011;1427;48.510;9.060;2023-07-22T14:12:37;49.40;;;5.13;;
2838;SDS011;1427;48.510;9.060;2023-07-22T14:15:05;50.57;;;4.77;;
2838;SDS011;1427;48.510;9.060;2023-07-22T14:17:34;48.30;;;4.90;;
2838;SDS011;1427;48.510;9.060;2023-07-22T14:20:06;49.13;;;4.80;;
2838;SDS011;1427;48.510;9.060;2023-07-22T14:22:36;49.80;;;5.10;;
2838;SDS011;1427;48.510;9.060;2023-07-22T14:25:05;49.63;;;4.77;;
2838;SDS011;1427;48.510;9.060;2023-07-22T14:27:34;50.70;;;5.60;;
2838;SDS011;1427;48.510;9.060;2023-07-22T14:30:12;49.50;;;5.13;;
2838;SDS011;1427;48.510;9.060;2023-07-22T14:32:40;47.53;;;4.33;;
2838;SDS011;1427;48.510;9.060;2023-07-22T14:35:10;49.50;;;4.93;;
2838;SDS011;1427;48.510;9.060;2023-07-22T14:37:39;49.43;;;5.43;;
2838;SDS011;1427;48.510;9.060;2023-07-22T14:40:09;48.57;;;4.40;;
2838;SDS011;1427;48.510;9.060;2023-07-22T14:42:38;48.90;;;4.87;;
2838;SDS011;1427;48.510;9.060;2023-07-22T14:45:07;49.67;;;4.90;;
2838;SDS011;1427;48.510;9.060;2023-07-22T14:47:36;48.10;;;4.30;;
2838;SDS011;1427;48.510;9.060;2023-07-22T14:52:33;49.80;;;4.97;;
2838;SDS011;1427;48.510;9.060;2023-07-22T14:55:01;50.67;;;6.03;;
2838;SDS011;1427;48.510;9.060;2023-07-22T14:57:30;48.60;;;4.57;;
2838;SDS011;1427;48.510;9.060;2023-07-22T14:59:58;48.77;;;4.37;;
2838;SDS011;1427;48.510;9.060;2023-07-22T15:02:26;49.27;;;4.70;;
2838;SDS011;1427;48.510;9.060;2023-07-22T15:04:54;48.27;;;4.60;;
2838;SDS011;1427;48.510;9.060;2023-07-22T15:07:23;51.23;;;4.60;;
2838;SDS011;1427;48.510;9.060;2023-07-22T15:09:52;49.37;;;6.03;;
2838;SDS011;1427;48.510;9.060;2023-07-22T15:12:22;47.97;;;4.70;;
2838;SDS011;1427;48.510;9.060;2023-07-22T15:14:50;50.10;;;6.30;;
2838;SDS011;1427;48.510;9.060;2023-07-22T15:17:18;48.77;;;5.30;;
2838;SDS011;1427;48.510;9.060;2023-07-22T15:19:49;49.07;;;5.40;;